Aérodrome :
LOGIN :

S'inscrire | Disclaimer

   EN    FR    IT 

 










Légende :    VFR   VFR Marginal   IFR   IFR Intensif   IFR Très Intensif
Visi : 
Plafond : 
>= 8 km
>= 3000ft
5 à 8 km
1000 à 3000 ft
1500m à 5 km
500 à 1000 ft
800 à 1500m
200 à 500 ft
< 800m
< 200 ft
Symboles :   Orages  Brouillard  Fortes neiges  Fortes précipitations  Vent > 20 kt
SIGMETs :   Divers  Orages  Givrage  Turbulence  Onde Orograph.  Cendres Volcan.







- Altitude de l'aérodrome : 359 ft
- Code IATA : BVA
- Voir les cartes d'approche


LFOB - Beauvais

DERNIER METAR :
  • 181530Z AUTO 29009KT 9999 FEW045 SCT054 BKN110 09/02 Q1022 NOSIG

METARs EXPIRÉS :
  • 181500Z AUTO 30010KT 9999 FEW044/// SCT060/// BKN088/// ///TCU 10/02 Q1022 TEMPO 4000 SHRA BECMG BKN030
  • 181430Z AUTO 31010KT 9999 FEW045 BKN056 BKN120 10/02 Q1022 TEMPO 4000 SHRA BKN030TCU
  • 181400Z AUTO 30010KT 9999 FEW044 SCT060 10/02 Q1022 TEMPO 4000 SHRA BKN030TCU
  • 181330Z AUTO 30013KT 9999 FEW037 SCT045 11/02 Q1022 TEMPO 4000 SHRA BKN030TCU
  • 181300Z AUTO 29010KT 260V320 9999 FEW038 SCT160 10/03 Q1022 TEMPO 4000 SHRA BKN030TCU

TAF TAF LFOB
Valide du 18 à 12h jusqu'au 19 à 12h UTC


181100Z 1812/1912 30012KT 9999 BKN030
PROB30
TEMPO 1812/1816 4000 SHRA BKN030TCU
BECMG 1818/1821 VRB02KT
BECMG 1900/1903 3000 BR
TEMPO 1903/1907 0800 BCFG
BECMG 1908/1911 9999 NSW
ATIS : +33 3 44 11 49 28
Pas de NOTAMs connus pour ce terrain.



MET'MAP, la Météo Aéronautique d'un coup d'oeil ! - Copyright ORBIFLY Décembre 2007 - Disclaimer

ORBIFLY MET'MAP TEAM :

Programmation & Développement : Alexandra Zaïnal
Conception & Développement : Baudouin d'Aumeries
Co-Programmation & Développement : Marc-Olivier Méhu
Soutien technique & logistique : Manuel Goepfert

Contact : metmap@orbifly.com




SOURCES & CREDITS :

   NOAA